Duck Lake, Michigan
Current Conditions -  °F | °C
As of 8:55 PM on Saturday 25 Oct 2014 (Local Time) from KFPK Reporting Station
Clear Clear  
Wind Chill: 55°   Ceiling: Unl
Heat Index: 55°   Visibility: 10mi
Dew Point: 34°   Wind: 7mph
Humidity: 44%   Direction: 280°W
Pressure: 29.82"   Gusts: NA
Location:  42.3865°N, 84.6975°W
Report Text: KFPK 260055Z AUTO 28006KT 10SM CLR 13/01 A2982 RMK AO2 T01290010
Loading
Personal Weather Stations






























Interactive Weather Map
Tropical Storm Tracking
New forecast layout! Learn more

10-Day Weather Forecast

Advertisements
Track Severe Weather on mobile